Airfield :
LOGIN :

Register | Disclaimer

   EN    FR    IT 

 










Legend :    VFR   Marginal VFR   IFR   Intensive IFR   Very Intensive IFR
Visi :
Ceiling :
>= 8 km
>= 3000ft
5 to 8 km
1000 to 3000 ft
1500m to 5 km
500 to 1000 ft
800 to 1500m
200 to 500 ft
< 800m
< 200 ft
Symbols :   Thunderstorms  Fog  Heavy snow  Heavy precipitations  Wind > 20 kt
SIGMETs :     Misc.  Thunderstorms  Icing  Turbulence  Mountain Waves  Volcanic Ashes






- Airport Elevation : 74 ft
- IATA code : MRS


LFML - Marseille / Marignane

CURRENT METAR :
  • 220430Z AUTO 08022KT CAVOK 12/05 Q1027 BECMG 08020G30KT

EXPIRED METARs :
  • 220400Z AUTO 08027KT 9999 ///TCU 13/04 Q1027 TEMPO 08025G40KT BECMG NSC
  • 220330Z AUTO 08023KT CAVOK 13/04 Q1028 TEMPO 08025G40KT
  • 220300Z AUTO 08020KT CAVOK 13/04 Q1028 TEMPO 08025G40KT
  • 220230Z AUTO 08019KT 9999 ///TCU 13/03 Q1029 TEMPO 08025G40KT BECMG NSC
  • 220200Z AUTO 08018KT CAVOK 13/03 Q1029 TEMPO 08025G40KT

TAF TAF LFML
Valid from the 22 at 03:00 until the 23 at 09:00 UTC


220200Z 2203/2309 08020G30KT CAVOK TX16/2213Z TN09/2305Z
TEMPO 2203/2206 08025G40KT
BECMG 2209/2212 09012KT
TEMPO 2212/2218 09015G25KT
TEMPO 2220/2309 VRB04KT
ATIS : +33 4 42 31 15 15



MET'MAP, your aeronautical weather chart ! - Copyright ORBIFLY December 2007 - Disclaimer

ORBIFLY MET'MAP TEAM :

Programming & Development : Alexandra Zaïnal
Concept & original design : Baudouin d'Aumeries
Assistance for programming : Marc-Olivier Méhu
Technical & hardware support : Manuel Goepfert

Contact : metmap@orbifly.com




SOURCES & CREDITS :

   NOAA